Tiempo atmosférico en la estación meteorológica de Teror, Las Palmas (683 m.)



Fecha
DESCASC
Temp. máxima en grados centígrados (hora)
DESCASC
Temp. mínima en grados centígrados (hora)
DESCASC
Temp. media en grados centígrados
DESCASC
Racha de viento máxima en m/sg (hora)
DESCASC
Velocidad máxima media en intervalos de 10 minutos(hora)
DESCASC
Precipitaciones diarias en mm
DESCASC
Precipitaciones de 00:00 a 06:00 en mm
DESCASC
Precipitaciones de 06:00 a 12:00 en mm
DESCASC
Precipitaciones de 12:00 a 18:00 en mm
DESCASC
Precipitaciones de 18:00 a 24:00 en mm
DESCASC
15-11-2018 20.2 (09:50) 8.7 (04:20) 14.5 7.5 (17:10) 3.89 (15:40) 2.6 0 0 1.6 1
14-11-2018 17.4 (15:00) 9.9 (05:10) 13.6 8.61 (00:40) 3.33 (00:40) 0.8 0.6 0 0.2 0
13-11-2018 16.5 (10:30) 11.9 (01:10) 14.2 8.33 (11:00) 5 (10:50) 1.8 0.2 0 1.2 0.4
12-11-2018 15.2 (06:10) 12.2 (21:40) 13.7 9.44 (11:20) 4.72 (11:20) 27.2 0 16.2 11 0
11-11-2018 19.3 (12:40) 10.9 (00:00) 15.1 7.22 (22:10) 3.33 (22:10) 0.2 0 0 0 0.2
10-11-2018 18.2 (16:20) 11.8 (00:00) 15 6.11 (14:50) 2.78 (11:00) 0.6 0.6 0 0 0
09-11-2018 19.3 (09:50) 11.4 (00:00) 15.3 5 (11:50) 2.5 (11:50) 3.6 0 0 3 0.6
08-11-2018 20.4 (15:10) 12 (00:00) 16.2 6.39 (12:20) 2.78 (12:30) 0 0 0 0 0
07-11-2018 16.8 (12:30) 10.5 (00:00) 13.6 3.89 (12:50) 1.94 (11:10) 0 0 0 0 0
06-11-2018 17.1 (14:10) 10.5 (00:00) 13.8 5.28 (10:40) 2.78 (15:10) 5.8 2.2 3.4 0.2 0
05-11-2018 20.2 (16:50) 12.3 (00:00) 16.3 5.28 (06:20) 3.06 (06:20) 9.4 4.8 1.2 0 3.4
04-11-2018 18.1 (14:00) 13.1 (00:00) 15.6 5.83 (19:10) 3.33 (15:50) 2.8 0.2 0.4 0.2 2
03-11-2018 16.8 (12:30) 12.4 (00:00) 14.6 6.11 (16:10) 3.06 (13:10) 5 1.4 3.4 0.2 0
02-11-2018 17.5 (15:50) 14 (00:00) 15.8 6.67 (16:20) 3.33 (12:50) 0.8 0.2 0.4 0 0.2
01-11-2018 20.3 (10:40) 13.9 (00:00) 17.1 7.78 (12:50) 3.89 (15:20) 7.6 0.4 0 7 0.2
31-10-2018 18.7 (13:50) 13.4 (00:00) 16.1 7.78 (00:40) 3.89 (14:50) 1.8 1.8 0 0 0
30-10-2018 18.4 (13:50) 11.9 (00:00) 15.1 9.17 (23:00) 4.17 (23:00) 8.2 4 0 0 4.2
29-10-2018 16.4 (12:50) 12 (00:00) 14.2 10 (11:30) 4.44 (00:10) 11 5.8 0.2 1.6 3.4
28-10-2018 15.7 (09:00) 12.4 (00:00) 14 9.72 (23:59) 3.89 (10:20) 14.6 7.6 5.6 1.2 0.2
27-10-2018 21.6 (10:30) 11.9 (00:00) 16.8 4.72 (16:00) 2.78 (01:10) 0 0 0 0 0
26-10-2018 21.2 (11:40) 12.3 (00:00) 16.8 5.83 (10:00) 3.33 (09:40) 0.2 0 0.2 0 0
25-10-2018 21.3 (14:30) 14.3 (00:00) 17.8 6.67 (07:10) 3.61 (07:10) 18.4 3.4 10 5 0
24-10-2018 23.9 (12:30) 12.7 (00:00) 18.3 4.72 (13:40) 2.22 (11:20) 2.2 0.2 0 0 2
23-10-2018 22.1 (12:20) 11.7 (00:00) 16.9 5 (14:30) 2.78 (02:50) 0 0 0 0 0
22-10-2018 21.6 (13:00) 11.9 (00:00) 16.8 5.28 (05:50) 3.33 (05:50) 0 0 0 0 0
21-10-2018 22.3 (12:30) 10.7 (00:00) 16.5 4.17 (12:30) 2.78 (04:40) 0.2 0 0 0.2 0
20-10-2018 20.6 (12:00) 10.8 (00:00) 15.7 6.11 (13:40) 3.33 (14:50) 10.6 10.4 0.2 0 0
19-10-2018 20.3 (16:40) 11.3 (00:00) 15.8 7.5 (13:30) 3.89 (20:30) 22.2 0.6 0 3 18.6
18-10-2018 17 (17:40) 14 (00:00) 15.5 8.06 (11:10) 4.72 (10:50) 20 3.8 13.4 2.8 0

Gráficas

Temp. máximas Temp. mínimas Temp. medias Precipitaciones Rachas de viento máximas Velocidades máximas media en intervalos de 10 minutos

Datos horarios

Fecha y hora oficial Temperatura (ºC) Velocidad del viento (km/h) Dirección del viento Racha (km/h) Dirección de racha Precipitación (mm) Presión (hPa) Tendencia (hPa) Humedad (%)
2018-11-16 23:00:00 11.2 5 Oeste 9 Noroeste 0 -- -- 99
2018-11-16 22:00:00 13.1 0 Calma 9 Sudeste 0 -- -- 97
2018-11-16 21:00:00 13.3 5 Sudeste 9 Sur 0 -- -- 96
2018-11-16 20:00:00 13.4 3 Sur 6 Sudeste 0 -- -- 95
2018-11-16 19:00:00 13.7 2 Nordeste 6 Nordeste 0 -- -- 94
2018-11-16 18:00:00 14.3 4 Nordeste 11 Sudeste 0 -- -- 90
2018-11-16 17:00:00 15.5 3 Nordeste 10 Norte 0 -- -- 85
2018-11-16 16:00:00 15.9 8 Norte 16 Norte 0 -- -- 83
2018-11-16 15:00:00 17.5 8 Nordeste 20 Norte 0 -- -- 81
2018-11-16 14:00:00 16.7 2 Norte 20 Norte 0 -- -- 80
2018-11-16 13:00:00 16.5 6 Norte 24 Norte 0 -- -- 78
2018-11-16 12:00:00 18.4 9 Noroeste 19 Noroeste 0 -- -- 76
2018-11-16 11:00:00 16.2 9 Norte 16 Norte 0 -- -- 83
2018-11-16 10:00:00 17.1 6 Noroeste 18 Noroeste 0 -- -- 80
2018-11-16 09:00:00 16.2 4 Norte 14 Sudoeste 0 -- -- 79
2018-11-16 08:00:00 12.6 6 Sudoeste 17 Sudoeste 0 -- -- 92
2018-11-16 07:00:00 11.9 8 Oeste 16 Sudoeste 0 -- -- 92
2018-11-16 06:00:00 12.3 9 Sudoeste 25 Sudoeste 0 -- -- 91
2018-11-16 05:00:00 12.3 4 Sudoeste 17 Sudoeste 0 -- -- 94
2018-11-16 04:00:00 12.4 4 Sur 22 Oeste 0 -- -- 96
2018-11-16 03:00:00 12.3 10 Oeste 17 Oeste 0 -- -- 96
2018-11-16 02:00:00 12.4 5 Oeste 16 Nordeste 0 -- -- 95
2018-11-16 01:00:00 12.8 5 Sudoeste 18 Noroeste 0 -- -- 95
2018-11-16 00:00:00 12.5 6 Nordeste 17 Sudoeste 0 -- -- 98
2018-11-15 23:00:00 12.8 4 Oeste 18 Sur 0.6 -- -- 97
2018-11-15 22:00:00 12.6 3 Sur 14 Sudeste 0 -- -- 96
2018-11-15 21:00:00 12.4 4 Sudeste 12 Sudeste 0 -- -- 96
2018-11-15 20:00:00 12.9 6 Sudeste 19 Noroeste 0 -- -- 97
2018-11-15 19:00:00 13.1 6 Nordeste 21 Noroeste 0.4 -- -- 99
2018-11-15 18:00:00 13.5 6 Norte 27 Norte 1.4 -- -- 96
2018-11-15 17:00:00 14.1 8 Nordeste 23 Noroeste 0 -- -- 93
2018-11-15 16:00:00 14.4 12 Noroeste 24 Noroeste 0 -- -- 94
2018-11-15 15:00:00 16 7 Norte 19 Noroeste 0 -- -- 85
2018-11-15 14:00:00 14.9 5 Noroeste 26 Noroeste 0 -- -- 89
2018-11-15 13:00:00 14.9 8 Norte 26 Norte 0.2 -- -- 94
2018-11-15 12:00:00 16.1 3 Nordeste 16 Oeste 0 -- -- 78
2018-11-15 11:00:00 18.2 7 Norte 13 Nordeste 0 -- -- 67
2018-11-15 10:00:00 19.8 4 Este 10 Sudeste 0 -- -- 59
2018-11-15 09:00:00 16.8 2 Nordeste 10 Sudoeste 0 -- -- 70
2018-11-15 08:00:00 12.9 6 Oeste 13 Sudoeste 0 -- -- 84
2018-11-15 07:00:00 11.9 6 Sur 17 Sur 0 -- -- 90
2018-11-15 06:00:00 11.8 5 Nordeste 18 Sudoeste 0 -- -- 85
2018-11-15 05:00:00 11.1 7 Oeste 15 Noroeste 0 -- -- 88
2018-11-15 04:00:00 10.1 5 Sudoeste 21 Sur 0 -- -- 90
2018-11-15 03:00:00 12.1 4 Noroeste 14 Sudoeste 0 -- -- 85
2018-11-15 02:00:00 11.9 8 Sudoeste 15 Oeste 0 -- -- 83
2018-11-15 01:00:00 9.7 7 Oeste 12 Oeste 0 -- -- 95
2018-11-15 00:00:00 11.9 8 Oeste 17 Oeste 0 -- -- 92
2018-11-14 23:00:00 10.9 7 Oeste 14 Oeste 0 -- -- 97
2018-11-14 22:00:00 10.3 9 Oeste 12 Oeste 0 -- -- 97
2018-11-14 21:00:00 12.6 5 Oeste 10 Oeste 0 -- -- 96
2018-11-14 20:00:00 12.6 5 Noroeste 10 Noroeste 0 -- -- 94
2018-11-14 19:00:00 12.7 4 Noroeste 12 Oeste 0 -- -- 94
2018-11-14 18:00:00 13.3 5 Noroeste 14 Noroeste 0 -- -- 89
2018-11-14 17:00:00 16.6 5 Noroeste 22 Norte 0 -- -- 74
2018-11-14 16:00:00 16.2 8 Noroeste 20 Noroeste 0 -- -- 78
2018-11-14 15:00:00 17.4 10 Norte 18 Norte 0.2 -- -- 76
2018-11-14 14:00:00 14.7 8 Norte 18 Nordeste 0 -- -- 88
2018-11-14 13:00:00 15.5 7 Norte 18 Norte 0 -- -- 83
2018-11-14 12:00:00 15.3 8 Nordeste 17 Norte 0 -- -- 83
2018-11-14 11:00:00 14.7 6 Norte 14 Nordeste 0 -- -- 87
2018-11-14 10:00:00 15.2 6 Norte 14 Norte 0 -- -- 82
2018-11-14 09:00:00 16.4 6 Norte 11 Norte 0 -- -- 84
2018-11-14 08:00:00 12.6 4 Noroeste 7 Norte 0 -- -- 100
2018-11-14 07:00:00 11.1 3 Oeste 6 Oeste 0 -- -- 100
2018-11-14 06:00:00 11 4 Oeste 8 Oeste 0 -- -- 100
2018-11-14 05:00:00 10 6 Oeste 9 Oeste 0 -- -- 100
2018-11-14 04:00:00 12 3 Noroeste 10 Norte 0 -- -- 100
2018-11-14 03:00:00 12.1 4 Norte 12 Norte 0 -- -- 100
2018-11-14 02:00:00 12 5 Nordeste 16 Norte 0.6 -- -- 100
2018-11-14 01:00:00 12.4 9 Nordeste 31 Nordeste 0 -- -- 100
2018-11-14 00:00:00 12.6 15 Norte 24 Norte 0.4 -- -- 100
2018-11-13 23:00:00 12.1 5 Norte 26 Norte 0 -- -- 97
2018-11-13 22:00:00 12.4 7 Norte 19 Nordeste 0 -- -- 94
2018-11-13 21:00:00 12.5 8 Norte 24 Norte 0 -- -- 94
2018-11-13 20:00:00 12.6 10 Norte 23 Norte 0 -- -- 95
2018-11-13 19:00:00 12.3 7 Norte 21 Norte 0 -- -- 95
2018-11-13 18:00:00 12.4 7 Norte 29 Nordeste 0 -- -- 97
2018-11-13 17:00:00 13.2 13 Norte 23 Norte 1.2 -- -- 97
2018-11-13 16:00:00 14 14 Norte 25 Noroeste 0 -- -- 90
2018-11-13 15:00:00 15.2 13 Norte 25 Norte 0 -- -- 80
2018-11-13 14:00:00 15.5 16 Norte 26 Norte 0 -- -- 81
2018-11-13 13:00:00 14.6 10 Norte 28 Norte 0 -- -- 88
2018-11-13 12:00:00 15.2 14 Nordeste 27 Norte 0 -- -- 84
2018-11-13 11:00:00 15.1 14 Norte 30 Nordeste 0 -- -- 83
2018-11-13 10:00:00 14.7 13 Norte 23 Nordeste 0 -- -- 86
2018-11-13 09:00:00 14.7 6 Norte 17 Norte 0 -- -- 84
2018-11-13 08:00:00 12.5 10 Norte 20 Norte 0 -- -- 93
2018-11-13 07:00:00 12.3 12 Norte 25 Norte 0 -- -- 93
2018-11-13 06:00:00 12.2 11 Norte 23 Norte 0 -- -- 93
2018-11-13 05:00:00 12 9 Norte 24 Norte 0 -- -- 98
2018-11-13 04:00:00 12.3 8 Norte 24 Norte 0.2 -- -- 99
2018-11-13 03:00:00 12.1 9 Norte 21 Norte 0 -- -- 91
2018-11-13 02:00:00 12.1 11 Norte 24 Norte 0 -- -- 94
2018-11-13 01:00:00 12.1 13 Norte 27 Norte 0 -- -- 97
2018-11-13 00:00:00 12.4 10 Norte 22 Norte 0 -- -- 95
2018-11-12 23:00:00 12.7 10 Norte 29 Noroeste 0 -- -- 96
2018-11-12 22:00:00 12.4 10 Norte 31 Norte 0 -- -- 98
2018-11-12 21:00:00 13 11 Norte 23 Norte 0 -- -- 97
2018-11-12 20:00:00 12.9 10 Norte 24 Norte 0 -- -- 96
2018-11-12 19:00:00 12.7 12 Norte 26 Norte 0 -- -- 96
2018-11-12 18:00:00 13.2 9 Norte 26 Noroeste 0.2 -- -- 100
2018-11-12 17:00:00 13.4 11 Norte 27 Norte 0.2 -- -- 100
2018-11-12 16:00:00 14 10 Norte 23 Noroeste 2 -- -- 100
2018-11-12 15:00:00 14.1 9 Norte 25 Noroeste 0.4 -- -- 100
2018-11-12 14:00:00 13.8 8 Norte 29 Norte 4 -- -- 100
2018-11-12 13:00:00 14.4 11 Norte 32 Noroeste 4.2 -- -- 100
2018-11-12 12:00:00 14.3 14 Noroeste 34 Noroeste 4.8 -- -- 100
2018-11-12 11:00:00 14.7 12 Norte 29 Noroeste 4.4 -- -- 100
2018-11-12 10:00:00 14.2 12 Oeste 29 Oeste 1.4 -- -- 100
2018-11-12 09:00:00 13.8 13 Noroeste 30 Noroeste 2.8 -- -- 100
2018-11-12 08:00:00 14 10 Norte 23 Noroeste 2.8 -- -- 100
2018-11-12 07:00:00 14.7 7 Este 26 Oeste 0 -- -- 90
2018-11-12 06:00:00 14.9 12 Oeste 28 Oeste 0 -- -- 89
2018-11-12 05:00:00 14.6 8 Noroeste 24 Noroeste 0 -- -- 90
2018-11-12 04:00:00 14.7 8 Oeste 32 Oeste 0 -- -- 91
2018-11-12 03:00:00 14.2 14 Oeste 27 Oeste 0 -- -- 91
2018-11-12 02:00:00 14 6 Oeste 21 Oeste 0 -- -- 92
2018-11-12 01:00:00 14.3 8 Noroeste 23 Noroeste 0 -- -- 99
2018-11-12 00:00:00 14.1 6 Oeste 24 Oeste 0 -- -- 97
2018-11-11 23:00:00 14.2 11 Oeste 26 Noroeste 0 -- -- 97
2018-11-11 22:00:00 14.2 9 Noroeste 21 Noroeste 0 -- -- 99
2018-11-11 21:00:00 14.3 7 Noroeste 22 Noroeste 0.2 -- -- 98
2018-11-11 20:00:00 14.5 6 Oeste 23 Norte 0 -- -- 93
2018-11-11 19:00:00 14.6 8 Noroeste 20 Oeste 0 -- -- 91
2018-11-11 18:00:00 14.9 7 Noroeste 15 Norte 0 -- -- 89
2018-11-11 17:00:00 16.1 9 Noroeste 20 Norte 0 -- -- 82
2018-11-11 16:00:00 17.6 9 Noroeste 15 Norte 0 -- -- 77
2018-11-11 15:00:00 17.7 8 Norte 20 Norte 0 -- -- 75
2018-11-11 14:00:00 17.5 6 Norte 19 Norte 0 -- -- 75
2018-11-11 13:00:00 18.8 7 Norte 15 Noroeste 0 -- -- 71
2018-11-11 12:00:00 17.8 5 Nordeste 18 Norte 0 -- -- 74
2018-11-11 11:00:00 16 5 Norte 13 Norte 0 -- -- 91
2018-11-11 10:00:00 14.7 3 Norte 8 Norte 0 -- -- 93
2018-11-11 09:00:00 14.6 0 Calma 9 Noroeste 0 -- -- 90
2018-11-11 08:00:00 13.4 5 Noroeste 13 Noroeste 0 -- -- 93
2018-11-11 07:00:00 12.5 6 Oeste 15 Oeste 0 -- -- 95
2018-11-11 06:00:00 12.6 5 Noroeste 10 Noroeste 0 -- -- 98
2018-11-11 05:00:00 13 4 Noroeste 10 Noroeste 0 -- -- 99
2018-11-11 04:00:00 12.5 4 Oeste 10 Norte 0 -- -- 98
2018-11-11 03:00:00 12.8 6 Noroeste 14 Norte 0 -- -- 100
2018-11-11 02:00:00 12.3 5 Noroeste 9 Oeste 0 -- -- 100
2018-11-11 01:00:00 11.9 5 Oeste 7 Oeste 0 -- -- 100
2018-11-11 00:00:00 12.7 3 Sudoeste 5 Sudoeste 0 -- -- 100
2018-11-10 23:00:00 13 3 Oeste 8 Nordeste 0 -- -- 99
2018-11-10 22:00:00 13.2 2 Norte 9 Noroeste 0 -- -- 99
2018-11-10 21:00:00 12.5 5 Noroeste 9 Noroeste 0 -- -- 97
2018-11-10 20:00:00 12.2 6 Oeste 10 Norte 0 -- -- 97
2018-11-10 19:00:00 13.7 3 Norte 8 Norte 0 -- -- 96
2018-11-10 18:00:00 13.6 4 Noroeste 15 Norte 0 -- -- 92
2018-11-10 17:00:00 14.7 4 Norte 14 Norte 0 -- -- 87
2018-11-10 16:00:00 15.8 0 Calma 19 Norte 0 -- -- 81
2018-11-10 15:00:00 16.5 9 Nordeste 22 Nordeste 0 -- -- 81
2018-11-10 14:00:00 16.6 8 Nordeste 17 Nordeste 0 -- -- 81
2018-11-10 13:00:00 16.7 8 Nordeste 17 Nordeste 0 -- -- 81
2018-11-10 12:00:00 16.3 8 Nordeste 15 Norte 0 -- -- 84
2018-11-10 11:00:00 15.9 10 Norte 18 Norte 0 -- -- 85
2018-11-10 10:00:00 14.7 6 Norte 13 Norte 0 -- -- 92
2018-11-10 09:00:00 15.9 7 Norte 15 Norte 0 -- -- 95
2018-11-10 08:00:00 12.6 4 Noroeste 8 Noroeste 0 -- -- 100
2018-11-10 07:00:00 12.4 4 Noroeste 9 Norte 0 -- -- 100
2018-11-10 06:00:00 11.9 5 Oeste 11 Noroeste 0 -- -- 100
2018-11-10 05:00:00 12.6 4 Noroeste 11 Noroeste 0 -- -- 100
2018-11-10 04:00:00 13.1 4 Norte 13 Noroeste 0 -- -- 100
2018-11-10 03:00:00 13 4 Noroeste 8 Nordeste 0.6 -- -- 100
2018-11-10 02:00:00 12.8 3 Oeste 9 Sudoeste 0 -- -- 100
2018-11-10 01:00:00 11.8 3 Oeste 8 Sudoeste 0 -- -- 100
2018-11-10 00:00:00 12 4 Oeste 6 Oeste 0 -- -- 100
2018-11-09 23:00:00 13 2 Nordeste 10 Nordeste 0 -- -- 100
2018-11-09 22:00:00 12.8 3 Noroeste 16 Norte 0.2 -- -- 100
2018-11-09 21:00:00 13.5 3 Oeste 14 Norte 0.2 -- -- 100
2018-11-09 20:00:00 13.7 8 Norte 17 Norte 0 -- -- 100
2018-11-09 19:00:00 14.1 6 Norte 13 Norte 0.2 -- -- 100
2018-11-09 18:00:00 14.6 6 Norte 12 Nordeste 0.2 -- -- 100
2018-11-09 17:00:00 15.1 7 Norte 14 Norte 0 -- -- 100
2018-11-09 16:00:00 15.2 7 Norte 17 Norte 0 -- -- 100
2018-11-09 15:00:00 15.8 6 Nordeste 14 Nordeste 0.2 -- -- 100
2018-11-09 14:00:00 15.6 7 Nordeste 18 Este 0 -- -- 100
2018-11-09 13:00:00 15.7 6 Nordeste 13 Este 2.6 -- -- 99
2018-11-09 12:00:00 15.9 6 Nordeste 18 Norte 0 -- -- 98
2018-11-09 11:00:00 17.2 3 Nordeste 13 Nordeste 0 -- -- 88
2018-11-09 10:00:00 19.1 5 Nordeste 10 Nordeste 0 -- -- 77
2018-11-09 09:00:00 16.1 2 Nordeste 6 Nordeste 0 -- -- 88
2018-11-09 08:00:00 14.7 3 Sudoeste 8 Oeste 0 -- -- 94
2018-11-09 07:00:00 13.9 4 Sur 9 Sudoeste 0 -- -- 93
2018-11-09 06:00:00 14.3 4 Sudoeste 10 Sur 0 -- -- 92
2018-11-09 05:00:00 12.8 5 Sudoeste 11 Sudoeste 0 -- -- 99
2018-11-09 04:00:00 12.2 6 Sudoeste 9 Sudoeste 0 -- -- 99
2018-11-09 03:00:00 13 5 Sudoeste 9 Sudoeste 0 -- -- 100
2018-11-09 02:00:00 12.6 4 Sudoeste 7 Sudoeste 0 -- -- 100
2018-11-09 01:00:00 11.7 3 Sur 5 Sudeste 0 -- -- 100
2018-11-09 00:00:00 13.4 4 Sur 8 Sur 0 -- -- 96
2018-11-08 23:00:00 13.7 4 Sudeste 11 Sudeste 0 -- -- 96
2018-11-08 22:00:00 12.7 5 Sur 9 Nordeste 0 -- -- 98
2018-11-08 21:00:00 12.4 4 Sudeste 13 Sudoeste 0 -- -- 97
2018-11-08 20:00:00 12.7 4 Oeste 6 Sudoeste 0 -- -- 97
2018-11-08 19:00:00 12.4 4 Oeste 16 Noroeste 0 -- -- 97
2018-11-08 18:00:00 12.8 7 Noroeste 16 Noroeste 0 -- -- 92
2018-11-08 17:00:00 17.2 10 Noroeste 19 Noroeste 0 -- -- 75
2018-11-08 16:00:00 19.2 0 Calma 17 Norte 0 -- -- 70
2018-11-08 15:00:00 20.2 6 Nordeste 18 Nordeste 0 -- -- 57
2018-11-08 14:00:00 19.4 8 Nordeste 18 Nordeste 0 -- -- 69
2018-11-08 13:00:00 18.2 10 Nordeste 23 Norte 0 -- -- 71
2018-11-08 12:00:00 18.6 9 Nordeste 16 Nordeste 0 -- -- 72
2018-11-08 11:00:00 17.6 6 Norte 18 Norte 0 -- -- 73
2018-11-08 10:00:00 16.2 4 Noroeste 13 Noroeste 0 -- -- 77
2018-11-08 09:00:00 17.9 2 Este 6 Sudoeste 0 -- -- 69
2018-11-08 08:00:00 12.8 3 Oeste 6 Oeste 0 -- -- 95
2018-11-08 07:00:00 12.1 6 Oeste 9 Oeste 0 -- -- 96
2018-11-08 06:00:00 12.6 5 Oeste 9 Oeste 0 -- -- 95
2018-11-08 05:00:00 12.4 4 Oeste 8 Oeste 0 -- -- 93
2018-11-08 04:00:00 12.5 4 Sudoeste 7 Sudoeste 0 -- -- 92
2018-11-08 03:00:00 12.8 4 Sudoeste 7 Oeste 0 -- -- 88
2018-11-08 02:00:00 12.7 5 Sudoeste 9 Sudoeste 0 -- -- 91
2018-11-08 01:00:00 12.7 3 Sudoeste 5 Sudoeste 0 -- -- 92
2018-11-08 00:00:00 12.5 2 Sudoeste 5 Noroeste 0 -- -- 94
2018-11-07 23:00:00 12.5 3 Sudoeste 5 Sudoeste 0 -- -- 95
2018-11-07 22:00:00 12.5 4 Sudoeste 7 Sudoeste 0 -- -- 94
2018-11-07 21:00:00 12 3 Oeste 5 Noroeste 0 -- -- 98
2018-11-07 20:00:00 12 5 Sudoeste 9 Sudoeste 0 -- -- 93
2018-11-07 19:00:00 11 3 Oeste 9 Oeste 0 -- -- 98
2018-11-07 18:00:00 13.1 4 Noroeste 6 Noroeste 0 -- -- 87
2018-11-07 17:00:00 14.9 5 Norte 13 Nordeste 0 -- -- 78
2018-11-07 16:00:00 15.1 5 Nordeste 9 Norte 0 -- -- 80
2018-11-07 15:00:00 15.3 5 Nordeste 13 Nordeste 0 -- -- 81
2018-11-07 14:00:00 16 6 Nordeste 12 Nordeste 0 -- -- 78
2018-11-07 13:00:00 16.4 7 Nordeste 14 Nordeste 0 -- -- 74
2018-11-07 12:00:00 16.1 4 Este 12 Nordeste 0 -- -- 78
2018-11-07 11:00:00 15.4 5 Este 12 Este 0 -- -- 80
2018-11-07 10:00:00 14.9 0 Calma 3 Sudeste 0 -- -- 82
2018-11-07 09:00:00 14 0 Calma 4 Sur 0 -- -- 86
2018-11-07 08:00:00 12.3 4 Sudoeste 12 Sudeste 0 -- -- 92
2018-11-07 07:00:00 11.1 5 Sur 9 Sudoeste 0 -- -- 97
2018-11-07 06:00:00 11.4 0 Calma 8 Sudeste 0 -- -- 96
2018-11-07 05:00:00 12.5 2 Sudoeste 5 Oeste 0 -- -- 96
2018-11-07 04:00:00 12.7 0 Calma 6 Nordeste 0 -- -- 95
2018-11-07 03:00:00 12.8 2 Oeste 9 Nordeste 0 -- -- 95
2018-11-07 02:00:00 12.9 3 Noroeste 9 Noroeste 0 -- -- 98
2018-11-07 01:00:00 12.9 3 Noroeste 7 Sudoeste 0 -- -- 98
2018-11-07 00:00:00 12.4 3 Oeste 10 Oeste 0 -- -- 98
2018-11-06 23:00:00 10.6 6 Oeste 13 Oeste 0 -- -- 99
2018-11-06 22:00:00 12.5 3 Oeste 9 Noroeste 0 -- -- 94
2018-11-06 21:00:00 13.1 5 Oeste 15 Sudoeste 0 -- -- 91
2018-11-06 20:00:00 13.5 6 Oeste 18 Sudoeste 0 -- -- 89
2018-11-06 19:00:00 13.5 5 Noroeste 12 Noroeste 0 -- -- 91
2018-11-06 18:00:00 13.9 5 Noroeste 13 Norte 0 -- -- 91
2018-11-06 17:00:00 16.4 7 Norte 16 Norte 0 -- -- 83
2018-11-06 16:00:00 16 9 Norte 18 Norte 0 -- -- 86
2018-11-06 15:00:00 16.1 9 Norte 17 Nordeste 0 -- -- 87
2018-11-06 14:00:00 16.9 0 Calma 17 Noroeste 0 -- -- 90
2018-11-06 13:00:00 15.9 8 Norte 17 Nordeste 0.2 -- -- 98
2018-11-06 12:00:00 15.7 9 Nordeste 16 Norte 0.2 -- -- 100
2018-11-06 11:00:00 15 4 Norte 19 Este 0 -- -- 100
2018-11-06 10:00:00 15 0 Calma 11 Nordeste 0 -- -- 100
2018-11-06 09:00:00 14.2 6 Nordeste 14 Este 0.2 -- -- 100
2018-11-06 08:00:00 13.7 4 Este 11 Nordeste 2 -- -- 100
2018-11-06 07:00:00 13.8 4 Sudeste 13 Nordeste 1 -- -- 100
2018-11-06 06:00:00 13.6 4 Sur 7 Sudeste 0 -- -- 100
2018-11-06 05:00:00 13.8 2 Sur 8 Sur 0 -- -- 100
2018-11-06 04:00:00 13.7 2 Este 9 Sur 0.2 -- -- 100
2018-11-06 03:00:00 13.5 4 Sur 10 Nordeste 2 -- -- 100
2018-11-06 02:00:00 13.4 5 Nordeste 13 Nordeste 0 -- -- 100
2018-11-06 01:00:00 13 6 Sudoeste 13 Sudoeste 0 -- -- 100
2018-11-06 00:00:00 12.4 3 Sur 10 Sudeste 0 -- -- 100
2018-11-05 23:00:00 13.2 3 Sur 7 Sur 0.2 -- -- 100
2018-11-05 22:00:00 13.8 0 Calma 16 Nordeste 0.8 -- -- 100
2018-11-05 21:00:00 14.6 9 Norte 17 Nordeste 2.4 -- -- 100
2018-11-05 20:00:00 14.2 5 Noroeste 13 Noroeste 0 -- -- 99
2018-11-05 19:00:00 12.9 5 Noroeste 10 Noroeste 0 -- -- 99
2018-11-05 18:00:00 13.5 7 Oeste 9 Oeste 0 -- -- 93
2018-11-05 17:00:00 19.2 4 Norte 12 Norte 0 -- -- 73
2018-11-05 16:00:00 16.8 7 Norte 15 Nordeste 0 -- -- 85
2018-11-05 15:00:00 18.6 7 Nordeste 15 Norte 0 -- -- 77
2018-11-05 14:00:00 18 4 Nordeste 13 Sur 0 -- -- 79
2018-11-05 13:00:00 16.2 4 Este 10 Este 0 -- -- 89
2018-11-05 12:00:00 16.2 2 Sur 9 Nordeste 0 -- -- 85
2018-11-05 11:00:00 15.2 4 Nordeste 9 Nordeste 0 -- -- 91
2018-11-05 10:00:00 15.5 2 Este 8 Este 0 -- -- 89
2018-11-05 09:00:00 14.8 3 Nordeste 8 Norte 0.2 -- -- 100
2018-11-05 08:00:00 13.3 5 Noroeste 10 Noroeste 0 -- -- 100
2018-11-05 07:00:00 12.7 6 Noroeste 19 Noroeste 1 -- -- 100
2018-11-05 06:00:00 13.2 0 Calma 8 Norte 1 -- -- 100
2018-11-05 05:00:00 13 5 Nordeste 12 Norte 1.2 -- -- 100
2018-11-05 04:00:00 13.2 0 Calma 7 Sur 1.8 -- -- 100
2018-11-05 03:00:00 13.3 6 Norte 16 Norte 0.8 -- -- 100
2018-11-05 02:00:00 12.9 5 Sudoeste 9 Norte 0 -- -- 100
2018-11-05 01:00:00 12.6 5 Noroeste 8 Norte 0 -- -- 100
2018-11-05 00:00:00 13.1 4 Oeste 19 Norte 0.4 -- -- 100
2018-11-04 23:00:00 13.2 7 Noroeste 16 Noroeste 0.2 -- -- 100
2018-11-04 22:00:00 13.5 5 Noroeste 12 Noroeste 0.2 -- -- 100
2018-11-04 21:00:00 13.5 5 Noroeste 15 Norte 0.6 -- -- 100
2018-11-04 20:00:00 13.8 5 Norte 21 Norte 0.2 -- -- 100
2018-11-04 19:00:00 14.1 2 Noroeste 10 Norte 0.4 -- -- 100
2018-11-04 18:00:00 14 6 Norte 17 Nordeste 0.2 -- -- 100
2018-11-04 17:00:00 14.1 7 Norte 17 Norte 0 -- -- 99
2018-11-04 16:00:00 15.1 8 Norte 20 Norte 0 -- -- 98
2018-11-04 15:00:00 17.2 0 Calma 17 Norte 0 -- -- 87
2018-11-04 14:00:00 18.1 4 Nordeste 15 Nordeste 0 -- -- 73
2018-11-04 13:00:00 17.9 7 Norte 16 Nordeste 0 -- -- 79
2018-11-04 12:00:00 16.7 7 Nordeste 18 Norte 0 -- -- 92
2018-11-04 11:00:00 16.7 6 Nordeste 15 Nordeste 0 -- -- 80
2018-11-04 10:00:00 15.2 0 Calma 7 Sur 0 -- -- 89
2018-11-04 09:00:00 14.4 0 Calma 8 Noroeste 0 -- -- 99
2018-11-04 08:00:00 13.7 2 Norte 9 Este 0.2 -- -- 100
2018-11-04 07:00:00 13.4 2 Sudoeste 10 Noroeste 0.2 -- -- 97
2018-11-04 06:00:00 13.6 6 Sudoeste 10 Sudoeste 0 -- -- 93
2018-11-04 05:00:00 13.5 4 Norte 12 Norte 0 -- -- 96
2018-11-04 04:00:00 13.8 5 Norte 11 Norte 0.2 -- -- 99
2018-11-04 03:00:00 13.6 3 Noroeste 9 Oeste 0 -- -- 95
2018-11-04 02:00:00 13.4 3 Noroeste 16 Norte 0 -- -- 94
2018-11-04 01:00:00 14.1 9 Norte 18 Norte 0 -- -- 99
2018-11-04 00:00:00 13.6 4 Noroeste 9 Noroeste 0 -- -- 96
2018-11-03 23:00:00 12.8 3 Oeste 10 Norte 0 -- -- 100
2018-11-03 22:00:00 13 3 Noroeste 6 Oeste 0 -- -- 100
2018-11-03 21:00:00 13.7 3 Sudoeste 6 Norte 0 -- -- 100
2018-11-03 20:00:00 14.2 3 Nordeste 13 Nordeste 0 -- -- 100
2018-11-03 19:00:00 13.7 4 Oeste 15 Este 0 -- -- 98
2018-11-03 18:00:00 14.7 4 Norte 19 Norte 0 -- -- 95
2018-11-03 17:00:00 15 10 Nordeste 22 Nordeste 0 -- -- 96
2018-11-03 16:00:00 15.9 10 Nordeste 19 Nordeste 0 -- -- 94
2018-11-03 15:00:00 15.7 8 Norte 18 Norte 0 -- -- 95
2018-11-03 14:00:00 15.6 9 Nordeste 20 Norte 0 -- -- 99
2018-11-03 13:00:00 15.8 9 Norte 18 Norte 0.2 -- -- 98
2018-11-03 12:00:00 16.1 4 Norte 19 Nordeste 0.6 -- -- 100
2018-11-03 11:00:00 15.1 10 Nordeste 18 Norte 1.8 -- -- 100
2018-11-03 10:00:00 14.6 0 Calma 18 Nordeste 1 -- -- 100
2018-11-03 09:00:00 14.6 0 Calma 9 Norte 0 -- -- 100
2018-11-03 08:00:00 14.4 5 Norte 9 Norte 0 -- -- 100
2018-11-03 07:00:00 14.3 6 Norte 10 Este 0 -- -- 100
2018-11-03 06:00:00 14 3 Oeste 11 Nordeste 0.2 -- -- 100
2018-11-03 05:00:00 14.1 2 Norte 13 Norte 0 -- -- 100
2018-11-03 04:00:00 14.4 5 Norte 18 Norte 0.4 -- -- 100
2018-11-03 03:00:00 14.6 3 Nordeste 16 Norte 0.4 -- -- 100
2018-11-03 02:00:00 14.5 0 Calma 18 Nordeste 0.2 -- -- 100
2018-11-03 01:00:00 14.7 6 Nordeste 15 Nordeste 0.2 -- -- 100
2018-11-03 00:00:00 14.7 6 Este 17 Norte 0.2 -- -- 100
2018-11-02 23:00:00 14.7 9 Nordeste 23 Nordeste 0 -- -- 100
2018-11-02 22:00:00 14.8 8 Nordeste 19 Nordeste 0 -- -- 100
2018-11-02 21:00:00 14.8 5 Nordeste 18 Norte 0 -- -- 100
2018-11-02 20:00:00 14.8 5 Norte 15 Norte 0 -- -- 99
2018-11-02 19:00:00 14.6 6 Norte 20 Norte 0 -- -- 99
2018-11-02 18:00:00 15 8 Norte 19 Nordeste 0 -- -- 96
2018-11-02 17:00:00 15.8 9 Norte 24 Norte 0 -- -- 92
2018-11-02 16:00:00 17.2 7 Norte 19 Nordeste 0 -- -- 88
2018-11-02 15:00:00 16.1 9 Norte 18 Norte 0 -- -- 92
2018-11-02 14:00:00 16.6 9 Norte 21 Norte 0 -- -- 91
2018-11-02 13:00:00 16 9 Norte 21 Nordeste 0 -- -- 98
2018-11-02 12:00:00 16.2 2 Nordeste 19 Nordeste 0 -- -- 98
2018-11-02 11:00:00 16 7 Nordeste 16 Nordeste 0.2 -- -- 100
2018-11-02 10:00:00 15.8 6 Nordeste 14 Norte 0 -- -- 98
2018-11-02 09:00:00 15.4 4 Norte 13 Noroeste 0 -- -- 100
2018-11-02 08:00:00 14.8 7 Nordeste 14 Nordeste 0.2 -- -- 100
2018-11-02 07:00:00 14.2 4 Sudeste 10 Este 0 -- -- 100
2018-11-02 06:00:00 14.1 3 Nordeste 13 Nordeste 0.2 -- -- 100
2018-11-02 05:00:00 14.2 2 Sur 5 Norte 0 -- -- 100
2018-11-02 04:00:00 14 3 Noroeste 17 Este 0 -- -- 100
2018-11-02 03:00:00 14.3 2 Noroeste 11 Norte 0 -- -- 100
2018-11-02 02:00:00 14.1 3 Oeste 11 Sudoeste 0 -- -- 100
2018-11-02 01:00:00 14 2 Sur 11 Este 0 -- -- 100
2018-11-02 00:00:00 14.1 2 Sur 17 Nordeste 0 -- -- 100
2018-11-01 23:00:00 14.4 4 Nordeste 17 Nordeste 0.2 -- -- 100
2018-11-01 22:00:00 14.5 5 Nordeste 17 Norte 0 -- -- 100
2018-11-01 21:00:00 14.9 10 Norte 18 Norte 0 -- -- 100
2018-11-01 20:00:00 14.5 3 Norte 14 Norte 0 -- -- 100
2018-11-01 19:00:00 14.5 6 Norte 26 Norte 0 -- -- 100
2018-11-01 18:00:00 15.2 9 Norte 20 Norte 0 -- -- 100
2018-11-01 17:00:00 15.4 13 Norte 24 Norte 1 -- -- 100
2018-11-01 16:00:00 15.8 11 Norte 25 Norte 0.8 -- -- 100
2018-11-01 15:00:00 16.2 10 Norte 21 Norte 2.8 -- -- 100
2018-11-01 14:00:00 17.1 10 Noroeste 22 Noroeste 0 -- -- 97
2018-11-01 13:00:00 16 11 Norte 28 Noroeste 2.4 -- -- 100
2018-11-01 12:00:00 18.3 8 Noroeste 23 Oeste 0 -- -- 85
2018-11-01 11:00:00 19.8 7 Noroeste 25 Noroeste 0 -- -- 79
2018-11-01 10:00:00 18.9 7 Noroeste 24 Oeste 0 -- -- 84
2018-11-01 09:00:00 16.4 0 Calma 3 Sur 0 -- -- 92
2018-11-01 08:00:00 15 4 Oeste 21 Oeste 0 -- -- 93
2018-11-01 07:00:00 14.5 10 Oeste 18 Oeste 0 -- -- 97
2018-11-01 06:00:00 14.4 9 Oeste 23 Oeste 0 -- -- 99
2018-11-01 05:00:00 14.4 8 Oeste 19 Oeste 0.2 -- -- 99
2018-11-01 04:00:00 14.4 3 Noroeste 17 Oeste 0 -- -- 99
2018-11-01 03:00:00 14.4 7 Noroeste 18 Oeste 0 -- -- 99
2018-11-01 02:00:00 14.1 8 Oeste 21 Oeste 0.2 -- -- 96
2018-11-01 01:00:00 14.2 8 Oeste 18 Oeste 0 -- -- 92
2018-11-01 00:00:00 13.9 6 Oeste 19 Noroeste 0 -- -- 93
2018-10-31 23:00:00 14.1 6 Oeste 22 Norte 0 -- -- 93
2018-10-31 22:00:00 14.2 7 Oeste 18 Sudoeste 0 -- -- 95
2018-10-31 21:00:00 14.2 4 Noroeste 13 Oeste 0 -- -- 94
2018-10-31 20:00:00 13.9 8 Noroeste 18 Oeste 0 -- -- 92
2018-10-31 19:00:00 13.8 6 Oeste 18 Oeste 0 -- -- 89
2018-10-31 18:00:00 14.4 8 Noroeste 19 Noroeste 0 -- -- 86
2018-10-31 17:00:00 17.5 8 Noroeste 25 Norte 0 -- -- 74
2018-10-31 16:00:00 18.7 10 Noroeste 23 Noroeste 0 -- -- 68
2018-10-31 15:00:00 18.1 11 Norte 28 Norte 0 -- -- 71
2018-10-31 14:00:00 18.7 10 Norte 23 Norte 0 -- -- 70
2018-10-31 13:00:00 17.7 8 Norte 20 Nordeste 0 -- -- 83
2018-10-31 12:00:00 17.3 6 Norte 15 Noroeste 0 -- -- 79
2018-10-31 11:00:00 16.9 10 Norte 18 Norte 0 -- -- 83
2018-10-31 10:00:00 15.9 6 Norte 15 Norte 0 -- -- 90
2018-10-31 09:00:00 15.5 7 Noroeste 14 Noroeste 0 -- -- 92
2018-10-31 08:00:00 13.8 5 Noroeste 16 Oeste 0 -- -- 97
2018-10-31 07:00:00 13.5 8 Noroeste 20 Norte 0 -- -- 98
2018-10-31 06:00:00 13.6 10 Noroeste 18 Noroeste 0 -- -- 100
2018-10-31 05:00:00 14 7 Noroeste 23 Norte 0 -- -- 100
2018-10-31 04:00:00 13.7 10 Noroeste 21 Oeste 0 -- -- 100
2018-10-31 03:00:00 14 8 Norte 19 Noroeste 0 -- -- 100
2018-10-31 02:00:00 14.6 12 Norte 23 Norte 0.8 -- -- 100
2018-10-31 01:00:00 14.6 10 Norte 28 Noroeste 1 -- -- 100
2018-10-31 00:00:00 14.2 9 Oeste 31 Oeste 0.6 -- -- 100
2018-10-30 23:00:00 14.5 15 Noroeste 33 Noroeste 2 -- -- 100
2018-10-30 22:00:00 14.5 9 Noroeste 23 Norte 1.6 -- -- 99
2018-10-30 21:00:00 15.1 12 Oeste 28 Noroeste 0 -- -- 88
2018-10-30 20:00:00 14.5 8 Sur 24 Sur 0 -- -- 90
2018-10-30 19:00:00 14.5 8 Norte 22 Noroeste 0 -- -- 94
2018-10-30 18:00:00 14.9 9 Noroeste 23 Norte 0 -- -- 92
2018-10-30 17:00:00 16 11 Noroeste 26 Noroeste 0 -- -- 86
2018-10-30 16:00:00 16.1 12 Noroeste 24 Norte 0 -- -- 85
2018-10-30 15:00:00 16.1 0 Calma 21 Noroeste 0 -- -- 89
2018-10-30 14:00:00 18.1 5 Norte 21 Noroeste 0 -- -- 76
2018-10-30 13:00:00 17.6 12 Noroeste 29 Noroeste 0 -- -- 74
2018-10-30 12:00:00 17 9 Noroeste 25 Noroeste 0 -- -- 81
2018-10-30 11:00:00 16.9 12 Noroeste 26 Norte 0 -- -- 78
2018-10-30 10:00:00 14.9 8 Oeste 28 Norte 0 -- -- 85
2018-10-30 09:00:00 13.4 7 Noroeste 23 Norte 0 -- -- 97
2018-10-30 08:00:00 13.1 7 Este 24 Noroeste 0 -- -- 99
2018-10-30 07:00:00 12.7 10 Noroeste 26 Norte 0 -- -- 100
2018-10-30 06:00:00 12.3 8 Sudeste 22 Sudoeste 0.2 -- -- 100
2018-10-30 05:00:00 12 6 Sur 26 Noroeste 0 -- -- 100
2018-10-30 04:00:00 12.6 10 Noroeste 26 Noroeste 1 -- -- 100
2018-10-30 03:00:00 12.2 5 Sur 21 Noroeste 0.6 -- -- 100
2018-10-30 02:00:00 12.5 6 Norte 19 Noroeste 1 -- -- 100
2018-10-30 01:00:00 12.3 6 Norte 22 Oeste 1.2 -- -- 99
2018-10-30 00:00:00 12.2 10 Oeste 16 Oeste 0 -- -- 99
2018-10-29 23:00:00 12.4 5 Oeste 17 Noroeste 0.2 -- -- 100
2018-10-29 22:00:00 12.4 8 Noroeste 19 Oeste 0.2 -- -- 100
2018-10-29 21:00:00 12 9 Noroeste 24 Noroeste 3 -- -- 100
2018-10-29 20:00:00 12.7 8 Noroeste 18 Noroeste 0 -- -- 96
2018-10-29 19:00:00 12.8 7 Noroeste 16 Noroeste 0 -- -- 95
2018-10-29 18:00:00 13.3 7 Norte 18 Noroeste 0 -- -- 93
2018-10-29 17:00:00 14.1 10 Norte 21 Norte 0 -- -- 91
2018-10-29 16:00:00 14.3 8 Norte 16 Noroeste 0.2 -- -- 91
2018-10-29 15:00:00 14.1 5 Norte 18 Oeste 0.4 -- -- 93
2018-10-29 14:00:00 13.7 6 Noroeste 26 Norte 1 -- -- 99
2018-10-29 13:00:00 15.9 4 Norte 22 Norte 0 -- -- 80
2018-10-29 12:00:00 14.8 0 Calma 36 Norte 0.2 -- -- 85
2018-10-29 11:00:00 14.2 12 Noroeste 26 Noroeste 0 -- -- 90
2018-10-29 10:00:00 14.6 12 Norte 22 Nordeste 0 -- -- 90
2018-10-29 09:00:00 13.6 8 Norte 22 Noroeste 0 -- -- 90
2018-10-29 08:00:00 12.5 9 Noroeste 19 Noroeste 0 -- -- 96
2018-10-29 07:00:00 12.3 10 Norte 22 Norte 0 -- -- 100
2018-10-29 06:00:00 12.1 10 Noroeste 24 Noroeste 0.6 -- -- 100
2018-10-29 05:00:00 12.3 15 Norte 26 Norte 2.4 -- -- 100
2018-10-29 04:00:00 12.8 13 Norte 33 Norte 2.4 -- -- 100
2018-10-29 03:00:00 12.6 9 Noroeste 28 Norte 0.2 -- -- 100
2018-10-29 02:00:00 13.2 16 Norte 32 Norte 0.2 -- -- 100
2018-10-29 01:00:00 13 9 Oeste 30 Norte 0 -- -- 96
2018-10-29 00:00:00 13.8 14 Norte 35 Norte 0 -- -- 100
2018-10-28 23:00:00 13.6 10 Noroeste 23 Norte 0 -- -- 96
2018-10-28 22:00:00 13.6 13 Noroeste 26 Noroeste 0.2 -- -- 91
2018-10-28 21:00:00 13.9 10 Norte 27 Noroeste 0 -- -- 95
2018-10-28 20:00:00 13.9 12 Norte 27 Norte 0 -- -- 94
2018-10-28 19:00:00 13.8 10 Norte 23 Noroeste 0 -- -- 98
2018-10-28 18:00:00 13.7 9 Noroeste 26 Noroeste 0.4 -- -- 96
2018-10-28 17:00:00 14.1 12 Norte 28 Norte 0.2 -- -- 93
2018-10-28 16:00:00 14.6 9 Norte 25 Noroeste 0 -- -- 98
2018-10-28 15:00:00 14.4 13 Norte 26 Noroeste 0.2 -- -- 97
2018-10-28 14:00:00 14.7 11 Norte 24 Norte 0.4 -- -- 100
2018-10-28 13:00:00 15.1 0 Calma 21 Norte 0 -- -- 100
2018-10-28 12:00:00 14.6 10 Norte 24 Norte 0 -- -- 100
2018-10-28 11:00:00 14.6 12 Norte 31 Norte 2.2 -- -- 100
2018-10-28 10:00:00 14.7 12 Nordeste 30 Nordeste 0.2 -- -- 100
2018-10-28 09:00:00 15.7 13 Norte 24 Norte 0 -- -- 100
2018-10-28 08:00:00 15.1 6 Noroeste 15 Norte 2.8 -- -- 100
2018-10-28 07:00:00 15 8 Norte 20 Norte 0.4 -- -- 100
2018-10-28 06:00:00 14.5 5 Noroeste 13 Oeste 0.2 -- -- 100
2018-10-28 05:00:00 14.9 4 Oeste 12 Norte 1.6 -- -- 100
2018-10-28 04:00:00 15.4 8 Norte 23 Norte 3.8 -- -- 100
2018-10-28 03:00:00 14.8 6 Noroeste 10 Norte 1.2 -- -- 100
2018-10-28 02:00:00 14.3 5 Noroeste 11 Oeste 0.6 -- -- 100
2018-10-28 01:00:00 13.7 5 Oeste 15 Norte 0.2 -- -- 100
2018-10-28 00:00:00 12.9 4 Oeste 9 Oeste 0 -- -- 100
2018-10-27 23:00:00 13.3 6 Oeste 11 Sudoeste 0 -- -- 100
2018-10-27 22:00:00 15 3 Sur 9 Norte 0 -- -- 100
2018-10-27 21:00:00 12.9 5 Oeste 8 Oeste 0 -- -- 100
2018-10-27 20:00:00 13.8 5 Oeste 9 Oeste 0 -- -- 100
2018-10-27 19:00:00 15.6 4 Oeste 9 Norte 0 -- -- 95
2018-10-27 18:00:00 17.3 5 Norte 12 Norte 0 -- -- 95
2018-10-27 17:00:00 17.6 5 Nordeste 15 Norte 0 -- -- 93
2018-10-27 16:00:00 17.8 8 Norte 17 Norte 0 -- -- 89
2018-10-27 15:00:00 19.8 2 Nordeste 13 Nordeste 0 -- -- 79
2018-10-27 14:00:00 18.1 0 Calma 9 Norte 0 -- -- 90
2018-10-27 13:00:00 17.6 3 Nordeste 14 Norte 0 -- -- 97
2018-10-27 12:00:00 18.2 6 Norte 13 Nordeste 0 -- -- 91
2018-10-27 11:00:00 21.4 6 Nordeste 12 Nordeste 0 -- -- 74
2018-10-27 10:00:00 20.7 2 Este 8 Nordeste 0 -- -- 78
2018-10-27 09:00:00 16.2 0 Calma 8 Oeste 0 -- -- 100
2018-10-27 08:00:00 12.2 4 Sudoeste 10 Oeste 0 -- -- 100
2018-10-27 07:00:00 12.1 8 Oeste 10 Oeste 0 -- -- 100
2018-10-27 06:00:00 12 6 Oeste 9 Oeste 0 -- -- 100
2018-10-27 05:00:00 11.9 4 Oeste 9 Oeste 0 -- -- 100
2018-10-27 04:00:00 12.2 3 Oeste 10 Oeste 0 -- -- 100
2018-10-27 03:00:00 12.3 8 Oeste 9 Oeste 0 -- -- 100
2018-10-27 02:00:00 12.6 6 Oeste 12 Oeste 0 -- -- 100
2018-10-27 01:00:00 12.5 6 Oeste 10 Oeste 0 -- -- 100
2018-10-27 00:00:00 12.5 5 Oeste 8 Oeste 0 -- -- 100
2018-10-26 23:00:00 12.5 4 Sudoeste 10 Sudoeste 0 -- -- 100
2018-10-26 22:00:00 12.8 4 Sudoeste 8 Oeste 0 -- -- 100
2018-10-26 21:00:00 13.1 4 Oeste 8 Oeste 0 -- -- 100
2018-10-26 20:00:00 14.6 4 Sudoeste 7 Oeste 0 -- -- 99
2018-10-26 19:00:00 16.9 3 Nordeste 9 Norte 0 -- -- 98
2018-10-26 18:00:00 17.4 6 Nordeste 14 Nordeste 0 -- -- 97
2018-10-26 17:00:00 18.5 9 Nordeste 16 Nordeste 0 -- -- 91
2018-10-26 16:00:00 18.9 6 Nordeste 14 Nordeste 0 -- -- 91
2018-10-26 15:00:00 18.3 0 Calma 17 Norte 0 -- -- 94
2018-10-26 14:00:00 20.3 9 Norte 15 Nordeste 0 -- -- 85
2018-10-26 13:00:00 18.5 0 Calma 17 Norte 0 -- -- 94
2018-10-26 12:00:00 19.5 9 Norte 17 Norte 0 -- -- 91
2018-10-26 11:00:00 18 8 Norte 19 Oeste 0 -- -- 93
2018-10-26 10:00:00 19.3 10 Noroeste 21 Noroeste 0 -- -- 87
2018-10-26 09:00:00 16.4 4 Sudoeste 13 Oeste 0.2 -- -- 100
2018-10-26 08:00:00 13.6 8 Oeste 13 Oeste 0 -- -- 100
2018-10-26 07:00:00 12.8 5 Oeste 9 Oeste 0 -- -- 100
2018-10-26 06:00:00 13.1 3 Sudoeste 10 Sudoeste 0 -- -- 100
2018-10-26 05:00:00 13.9 6 Sudoeste 10 Oeste 0 -- -- 100
2018-10-26 04:00:00 13.7 5 Sudoeste 8 Sudoeste 0 -- -- 100
2018-10-26 03:00:00 14.2 4 Sur 9 Noroeste 0 -- -- 100
2018-10-26 02:00:00 14.2 4 Oeste 17 Oeste 0 -- -- 100
2018-10-26 01:00:00 15.7 11 Oeste 18 Oeste 0 -- -- 100
2018-10-26 00:00:00 14.7 4 Oeste 8 Oeste 0 -- -- 100
2018-10-25 23:00:00 15.9 4 Sudoeste 6 Sudoeste 0 -- -- 100
2018-10-25 22:00:00 16.3 4 Oeste 10 Sudoeste 0 -- -- 100
2018-10-25 21:00:00 16.3 4 Sur 11 Sudeste 0 -- -- 100
2018-10-25 20:00:00 16.6 3 Sudoeste 9 Sudeste 0 -- -- 100
2018-10-25 19:00:00 16.6 4 Sur 13 Sudeste 0 -- -- 100
2018-10-25 18:00:00 17.1 4 Sudeste 21 Sudeste 0 -- -- 100
2018-10-25 17:00:00 17.7 4 Sudeste 13 Sudeste 0 -- -- 100
2018-10-25 16:00:00 18 4 Nordeste 19 Norte 1.6 -- -- 99
2018-10-25 15:00:00 20.7 5 Noroeste 22 Noroeste 0 -- -- 97
2018-10-25 14:00:00 19.8 5 Sudeste 13 Sudeste 3 -- -- 100
2018-10-25 13:00:00 19.9 6 Este 12 Este 0.4 -- -- 99
2018-10-25 12:00:00 17.4 5 Sudeste 11 Este 0 -- -- 100
2018-10-25 11:00:00 17.1 4 Nordeste 11 Este 0.8 -- -- 100
2018-10-25 10:00:00 16.6 3 Sudeste 13 Sudoeste 1.2 -- -- 100
2018-10-25 09:00:00 16.6 9 Este 21 Este 2.4 -- -- 100
2018-10-25 08:00:00 16.2 3 Sudeste 24 Sudeste 5.6 -- -- 100
2018-10-25 07:00:00 16.2 9 Sudeste 16 Sudeste 0 -- -- 100
2018-10-25 06:00:00 15.1 5 Sudeste 9 Sur 0.2 -- -- 100
2018-10-25 05:00:00 14.9 4 Sur 8 Sur 0 -- -- 100
2018-10-25 04:00:00 14.4 6 Oeste 8 Oeste 1.6 -- -- 100
2018-10-25 03:00:00 14.6 3 Sudoeste 7 Oeste 1 -- -- 99
2018-10-25 02:00:00 14.4 7 Oeste 11 Oeste 0 -- -- 100
2018-10-25 01:00:00 15.2 5 Sudoeste 13 Noroeste 0.6 -- -- 100
2018-10-25 00:00:00 15.6 4 Sudoeste 13 Noroeste 0 -- -- 99
2018-10-24 23:00:00 15.4 4 Sudoeste 11 Sudoeste 1.4 -- -- 99
2018-10-24 22:00:00 15.8 6 Sudoeste 11 Sur 0.6 -- -- 91
2018-10-24 21:00:00 18.1 6 Sudoeste 8 Sur 0 -- -- 85
2018-10-24 20:00:00 17.8 3 Sudoeste 6 Sudoeste 0 -- -- 96
2018-10-24 19:00:00 19.5 0 Calma 8 Norte 0 -- -- 94
2018-10-24 18:00:00 20.8 4 Nordeste 9 Nordeste 0 -- -- 90
2018-10-24 17:00:00 21 4 Nordeste 13 Nordeste 0 -- -- 88
2018-10-24 16:00:00 21.3 4 Norte 11 Nordeste 0 -- -- 86
2018-10-24 15:00:00 21.4 8 Norte 14 Norte 0 -- -- 86
2018-10-24 14:00:00 22.5 6 Norte 17 Este 0 -- -- 77
2018-10-24 13:00:00 23.3 8 Nordeste 13 Nordeste 0 -- -- 74
2018-10-24 12:00:00 23.1 7 Este 16 Este 0 -- -- 73
2018-10-24 11:00:00 23 7 Este 13 Este 0 -- -- 67
2018-10-24 10:00:00 21.7 6 Sudeste 10 Este 0 -- -- 71
2018-10-24 09:00:00 16.2 2 Sudeste 10 Oeste 0 -- -- 100
2018-10-24 08:00:00 13.6 5 Sudoeste 9 Sudoeste 0 -- -- 100
2018-10-24 07:00:00 14.1 4 Sudoeste 8 Sur 0 -- -- 100
2018-10-24 06:00:00 13.6 4 Sudoeste 7 Sudoeste 0 -- -- 100
2018-10-24 05:00:00 12.7 4 Oeste 8 Oeste 0.2 -- -- 100
2018-10-24 04:00:00 12.8 4 Sudoeste 6 Sudoeste 0 -- -- 100
2018-10-24 03:00:00 13.1 4 Sudoeste 8 Sudoeste 0 -- -- 100
2018-10-24 02:00:00 13 3 Sudoeste 6 Sudoeste 0 -- -- 100
2018-10-24 01:00:00 13.1 4 Oeste 9 Oeste 0 -- -- 100
2018-10-24 00:00:00 13.3 7 Oeste 9 Oeste 0 -- -- 100
2018-10-23 23:00:00 13.5 3 Sudoeste 5 Sudoeste 0 -- -- 100
2018-10-23 22:00:00 13.8 0 Calma 6 Oeste 0 -- -- 100
2018-10-23 21:00:00 14.9 0 Calma 6 Sur 0 -- -- 99
2018-10-23 20:00:00 16.6 3 Oeste 5 Oeste 0 -- -- 97
2018-10-23 19:00:00 16.7 3 Sudoeste 11 Noroeste 0 -- -- 95
2018-10-23 18:00:00 18.8 5 Noroeste 10 Norte 0 -- -- 85
2018-10-23 17:00:00 20.2 3 Norte 13 Noroeste 0 -- -- 80
2018-10-23 16:00:00 18.9 6 Norte 14 Norte 0 -- -- 90
2018-10-23 15:00:00 19.2 8 Norte 18 Oeste 0 -- -- 88
2018-10-23 14:00:00 20.3 4 Nordeste 15 Nordeste 0 -- -- 84
2018-10-23 13:00:00 19.5 3 Norte 16 Este 0 -- -- 83
2018-10-23 12:00:00 21.7 5 Nordeste 9 Nordeste 0 -- -- 68
2018-10-23 11:00:00 20.6 5 Norte 10 Este 0 -- -- 71
2018-10-23 10:00:00 21.3 4 Nordeste 6 Norte 0 -- -- 65
2018-10-23 09:00:00 18 3 Norte 9 Oeste 0 -- -- 79
2018-10-23 08:00:00 12.3 7 Noroeste 10 Oeste 0 -- -- 93
2018-10-23 07:00:00 12.5 8 Oeste 9 Oeste 0 -- -- 93
2018-10-23 06:00:00 12.2 4 Sudoeste 9 Sudoeste 0 -- -- 95
2018-10-23 05:00:00 12.5 6 Sudoeste 12 Oeste 0 -- -- 98
2018-10-23 04:00:00 12.7 7 Oeste 10 Oeste 0 -- -- 96
2018-10-23 03:00:00 13.2 9 Oeste 13 Oeste 0 -- -- 96
2018-10-23 02:00:00 13.4 8 Oeste 11 Oeste 0 -- -- 98
2018-10-23 01:00:00 14.2 3 Oeste 8 Oeste 0 -- -- 100
2018-10-23 00:00:00 13.7 6 Sudoeste 8 Sudoeste 0 -- -- 100
2018-10-22 23:00:00 13.1 5 Sudoeste 7 Sudoeste 0 -- -- 100
2018-10-22 22:00:00 13.5 4 Sudoeste 8 Sudoeste 0 -- -- 100
2018-10-22 21:00:00 14.3 5 Sudoeste 9 Sudoeste 0 -- -- 99
2018-10-22 20:00:00 14.2 3 Sur 5 Oeste 0 -- -- 97
2018-10-22 19:00:00 17.4 2 Nordeste 8 Norte 0 -- -- 88
2018-10-22 18:00:00 17.6 4 Norte 15 Norte 0 -- -- 87
2018-10-22 17:00:00 18.9 5 Norte 15 Norte 0 -- -- 81
2018-10-22 16:00:00 18.9 9 Noroeste 16 Norte 0 -- -- 82
2018-10-22 15:00:00 19.7 4 Norte 14 Nordeste 0 -- -- 72
2018-10-22 14:00:00 21.1 5 Este 15 Este 0 -- -- 67
2018-10-22 13:00:00 21.6 7 Este 15 Este 0 -- -- 66
2018-10-22 12:00:00 20.2 4 Este 9 Este 0 -- -- 74
2018-10-22 11:00:00 18.1 4 Sur 8 Sudeste 0 -- -- 71
2018-10-22 10:00:00 16.4 4 Noroeste 7 Oeste 0 -- -- 84
2018-10-22 09:00:00 13.5 2 Sudoeste 8 Noroeste 0 -- -- 93
2018-10-22 08:00:00 12.3 3 Oeste 8 Oeste 0 -- -- 94
2018-10-22 07:00:00 13 0 Calma 17 Noroeste 0 -- -- 93
2018-10-22 06:00:00 14.2 10 Noroeste 19 Oeste 0 -- -- 96
2018-10-22 05:00:00 12 5 Oeste 9 Oeste 0 -- -- 100
2018-10-22 04:00:00 12.1 4 Sudoeste 8 Sur 0 -- -- 100
2018-10-22 03:00:00 12.1 3 Oeste 10 Oeste 0 -- -- 100
2018-10-22 02:00:00 12.1 7 Oeste 8 Oeste 0 -- -- 100
2018-10-22 01:00:00 12.5 5 Sudoeste 8 Sudoeste 0 -- -- 100
2018-10-22 00:00:00 12.4 4 Sudoeste 12 Oeste 0 -- -- 100
2018-10-21 23:00:00 12.6 5 Oeste 8 Oeste 0 -- -- 100
2018-10-21 22:00:00 13 5 Oeste 10 Sudoeste 0 -- -- 100
2018-10-21 21:00:00 14 4 Sudoeste 8 Sudoeste 0 -- -- 100
2018-10-21 20:00:00 14.5 3 Sur 9 Norte 0 -- -- 98
2018-10-21 19:00:00 16.3 4 Noroeste 8 Sudeste 0 -- -- 94
2018-10-21 18:00:00 17.6 3 Sudeste 9 Sudeste 0 -- -- 90
2018-10-21 17:00:00 17.4 0 Calma 8 Nordeste 0.2 -- -- 93
2018-10-21 16:00:00 17.1 6 Nordeste 14 Nordeste 0 -- -- 91
2018-10-21 15:00:00 16.8 6 Norte 13 Norte 0 -- -- 94
2018-10-21 14:00:00 17.9 5 Norte 14 Nordeste 0 -- -- 90
2018-10-21 13:00:00 19.6 6 Norte 15 Norte 0 -- -- 78
2018-10-21 12:00:00 21.5 6 Norte 14 Nordeste 0 -- -- 64
2018-10-21 11:00:00 21.3 5 Nordeste 11 Sudeste 0 -- -- 57
2018-10-21 10:00:00 21.3 0 Calma 11 Nordeste 0 -- -- 55
2018-10-21 09:00:00 17.5 3 Sudoeste 9 Sudoeste 0 -- -- 68
2018-10-21 08:00:00 10.8 4 Oeste 8 Sudoeste 0 -- -- 92
2018-10-21 07:00:00 11.8 4 Sudoeste 9 Sudoeste 0 -- -- 82
2018-10-21 06:00:00 13.1 7 Sudoeste 14 Oeste 0 -- -- 79
2018-10-21 05:00:00 12.1 5 Oeste 13 Oeste 0 -- -- 90
2018-10-21 04:00:00 11.1 6 Oeste 8 Oeste 0 -- -- 98
2018-10-21 03:00:00 10.8 5 Sudoeste 10 Oeste 0 -- -- 99
2018-10-21 02:00:00 11 5 Sudoeste 10 Oeste 0 -- -- 97
2018-10-21 01:00:00 10.9 4 Sudoeste 8 Sudoeste 0 -- -- 97
2018-10-21 00:00:00 12.6 7 Sudoeste 13 Oeste 0 -- -- 94
2018-10-20 23:00:00 11.9 9 Oeste 12 Oeste 0 -- -- 95
2018-10-20 22:00:00 11.9 5 Sudoeste 8 Oeste 0 -- -- 99
2018-10-20 21:00:00 12.3 3 Oeste 8 Noroeste 0 -- -- 93
2018-10-20 20:00:00 13.3 5 Oeste 9 Oeste 0 -- -- 96
2018-10-20 19:00:00 16.2 2 Nordeste 8 Nordeste 0 -- -- 90
2018-10-20 18:00:00 17.1 4 Nordeste 15 Nordeste 0 -- -- 87
2018-10-20 17:00:00 17.2 6 Norte 15 Norte 0 -- -- 87
2018-10-20 16:00:00 18.8 6 Norte 17 Noroeste 0 -- -- 82
2018-10-20 15:00:00 18.4 9 Norte 22 Norte 0 -- -- 85
2018-10-20 14:00:00 20 9 Norte 22 Norte 0 -- -- 78
2018-10-20 13:00:00 19.4 11 Norte 19 Norte 0 -- -- 80
2018-10-20 12:00:00 20.6 9 Norte 17 Norte 0 -- -- 81
2018-10-20 11:00:00 19.9 7 Noroeste 16 Noroeste 0 -- -- 77
2018-10-20 10:00:00 18.6 5 Noroeste 13 Norte 0 -- -- 83
2018-10-20 09:00:00 15.7 5 Oeste 14 Oeste 0 -- -- 98
2018-10-20 08:00:00 12.2 9 Oeste 15 Oeste 0 -- -- 100
2018-10-20 07:00:00 10.8 9 Oeste 19 Oeste 0.2 -- -- 100
2018-10-20 06:00:00 11.7 10 Oeste 13 Oeste 0 -- -- 100
2018-10-20 05:00:00 11.5 8 Oeste 11 Oeste 0 -- -- 100
2018-10-20 04:00:00 13 6 Oeste 8 Oeste 0 -- -- 100
2018-10-20 03:00:00 14.4 3 Oeste 10 Norte 1.2 -- -- 100
2018-10-20 02:00:00 14.8 5 Noroeste 10 Norte 2.8 -- -- 100
2018-10-20 01:00:00 14.7 5 Norte 18 Norte 6.4 -- -- 100
2018-10-20 00:00:00 14.7 6 Noroeste 18 Noroeste 3.8 -- -- 100
2018-10-19 23:00:00 14.7 7 Nordeste 25 Nordeste 2.4 -- -- 100
2018-10-19 22:00:00 14.8 9 Norte 26 Norte 1.6 -- -- 100
2018-10-19 21:00:00 15.2 12 Norte 26 Norte 7.2 -- -- 100
2018-10-19 20:00:00 14.8 9 Norte 21 Norte 1.8 -- -- 100
2018-10-19 19:00:00 15.1 4 Oeste 22 Noroeste 1.8 -- -- 100
2018-10-19 18:00:00 15.3 9 Noroeste 20 Noroeste 2.4 -- -- 99
2018-10-19 17:00:00 17.1 13 Norte 22 Noroeste 0 -- -- 89
2018-10-19 16:00:00 18.7 10 Norte 21 Noroeste 0 -- -- 83
2018-10-19 15:00:00 18.2 7 Norte 20 Norte 0 -- -- 84
2018-10-19 14:00:00 17 9 Norte 27 Noroeste 0 -- -- 93
2018-10-19 13:00:00 16.2 0 Calma 13 Noroeste 0.6 -- -- 96
2018-10-19 12:00:00 18.3 0 Calma 24 Noroeste 0 -- -- 79
2018-10-19 11:00:00 17.2 9 Noroeste 19 Noroeste 0 -- -- 83
2018-10-19 10:00:00 15 7 Noroeste 16 Noroeste 0 -- -- 87
2018-10-19 09:00:00 15.5 5 Noroeste 13 Noroeste 0 -- -- 84
2018-10-19 08:00:00 11.7 8 Noroeste 18 Norte 0 -- -- 91
2018-10-19 07:00:00 13.2 9 Norte 26 Noroeste 0 -- -- 94
2018-10-19 06:00:00 13.5 9 Norte 27 Noroeste 0.6 -- -- 99
2018-10-19 05:00:00 13.9 9 Noroeste 17 Norte 0 -- -- 94
2018-10-19 04:00:00 14.2 8 Norte 19 Noroeste 0 -- -- 84
2018-10-19 03:00:00 13.6 9 Noroeste 19 Norte 0 -- -- 86
2018-10-19 02:00:00 14.4 12 Norte 23 Norte 0 -- -- 84
2018-10-19 01:00:00 14.3 11 Norte 23 Norte 0 -- -- 88
2018-10-19 00:00:00 14.3 10 Norte 19 Norte 0 -- -- 89
2018-10-18 23:00:00 14.7 12 Norte 21 Norte 0 -- -- 92
2018-10-18 22:00:00 14.3 7 Noroeste 19 Norte 0 -- -- 84
2018-10-18 21:00:00 14.5 6 Norte 15 Norte 0 -- -- 87
2018-10-18 20:00:00 14.4 10 Norte 21 Noroeste 0 -- -- 90
2018-10-18 19:00:00 14.8 11 Norte 23 Norte 0 -- -- 96
2018-10-18 18:00:00 15.6 8 Norte 23 Norte 0 -- -- 84
2018-10-18 17:00:00 16.2 14 Norte 26 Norte 0 -- -- 88
2018-10-18 16:00:00 15.6 13 Norte 27 Nordeste 0 -- -- 89
2018-10-18 15:00:00 15.1 12 Norte 27 Norte 0 -- -- 97
2018-10-18 14:00:00 15.2 15 Norte 26 Norte 0.8 -- -- 100
2018-10-18 13:00:00 15.2 13 Norte 28 Norte 2 -- -- 100
2018-10-18 12:00:00 15.9 10 Norte 29 Norte 5.2 -- -- 100
2018-10-18 11:00:00 16.1 16 Norte 29 Norte 5.8 -- -- 100
2018-10-18 10:00:00 16.4 8 Norte 22 Norte 0.8 -- -- 100
2018-10-18 09:00:00 15.9 6 Norte 17 Nordeste 0.2 -- -- 100
2018-10-18 08:00:00 15.5 4 Noroeste 18 Norte 0.2 -- -- 100
2018-10-18 07:00:00 15.3 8 Noroeste 22 Norte 1.2 -- -- 100
2018-10-18 06:00:00 15.3 6 Noroeste 18 Noroeste 0 -- -- 100
2018-10-18 05:00:00 15.5 8 Noroeste 25 Norte 0.6 -- -- 100
2018-10-18 04:00:00 15.7 10 Norte 26 Noroeste 2.4 -- -- 100
2018-10-18 03:00:00 16 7 Norte 19 Nordeste 0.6 -- -- 100
2018-10-18 02:00:00 15.8 7 Noroeste 13 Noroeste 0.2 -- -- 100
2018-10-18 01:00:00 15.7 5 Noroeste 12 Norte 0 -- -- 100
2018-10-18 00:00:00 15.9 6 Noroeste 13 Noroeste 0 -- -- 100